This is the latest recevied weather packets stored in our database for station/object KO4ILY. If no packets are shown the sender has not sent any weather packets the latest 10 day(s).
| Time | Temp. | Humidity | Pressure | Rain* | Wind** | Luminosity | Snow |
|---|---|---|---|---|---|---|---|
| 1777549516 | 13.33° C | 76% | 1013.1 hPa | 0 mm | - | 26 W/m² | - |
| 1777548937 | 13.33° C | 77% | 1012.9 hPa | 0 mm | - | 22 W/m² | - |
| 1777537517 | 13.89° C | 92% | 1013 hPa | 0.76 mm | - | 0 W/m² | - |
| 1777536917 | 13.89° C | 92% | 1013 hPa | 1.02 mm | - | 0 W/m² | - |
| 1777536317 | 14.44° C | 91% | 1012.9 hPa | 1.02 mm | - | 0 W/m² | - |
| 1777532718 | 16.11° C | 81% | 1013 hPa | 0.76 mm | - | 0 W/m² | - |
| 1777531538 | 16.67° C | 75% | 1013.6 hPa | 0 mm | - | 0 W/m² | - |
| 1777529136 | 16.67° C | 76% | 1012.9 hPa | 0 mm | - | 0 W/m² | - |
| 1777527317 | 16.67° C | 76% | 1012.5 hPa | 0 mm | - | 0 W/m² | - |
| 1777525537 | 16.67° C | 76% | 1013.1 hPa | 0 mm | - | 0 W/m² | - |
| 1777522518 | 17.22° C | 77% | 1013.4 hPa | 0 mm | - | 0 W/m² | - |
| 1777520118 | 17.78° C | 79% | 1013.3 hPa | 0 mm | - | 0 W/m² | - |
| 1777517736 | 18.33° C | 76% | 1013.7 hPa | 0 mm | - | 0 W/m² | - |
| 1777514737 | 19.44° C | 78% | 1013 hPa | 0 mm | - | 0 W/m² | - |
| 1777513517 | 19.44° C | 77% | 1012.5 hPa | 0 mm | - | 0 W/m² | - |
| 1777506917 | 21.67° C | 73% | 1011.1 hPa | 0 mm | - | 16 W/m² | - |
| 1777505717 | 22.22° C | 73% | 1010.9 hPa | 0 mm | - | 27 W/m² | - |
| 1777503917 | 23.33° C | 72% | 1010.6 hPa | 0 mm | - | 64 W/m² | - |
| 1777503317 | 23.33° C | 71% | 1010.6 hPa | 0 mm | - | 80 W/m² | - |
| 1777494337 | 26.67° C | 62% | 1010.7 hPa | 0 mm | - | 429 W/m² | - |
| 1777493717 | 26.67° C | 62% | 1010.9 hPa | 0 mm | - | 659 W/m² | - |
| 1777493117 | 26.67° C | 64% | 1011.2 hPa | 0 mm | - | 617 W/m² | - |
| 1777489519 | 25.56° C | 68% | 1012.2 hPa | 0 mm | - | 936 W/m² | - |
| 1777488939 | 26.11° C | 69% | 1012.1 hPa | 0 mm | - | 913 W/m² | - |
| 1777481118 | 22.22° C | 80% | 1013.2 hPa | 0 mm | - | 257 W/m² | - |
* Rain latest hour (hover to see other rain measurements)
** Current wind speed in m/s (hover to see current wind gust speed)